Time;durP1;ratioP1;P1;durP2;ratioP2;P2;SDS_P1;SDS_P2;PMS_P1;PMS_P2;Temp;Humidity;BMP_temperature;BMP_pressure;BME280_temperature;BME280_humidity;BME280_pressure;Samples;Min_cycle;Max_cycle;Signal;HPM_P1;HPM_P2
2022/09/25 00:02:01;;;;;;;41.70;35.20;;;13.00;99.90;;;;;;6309462;22;20745;-60
2022/09/25 00:04:28;;;;;;;42.37;33.67;;;13.00;99.90;;;;;;6309289;22;20464;-59
2022/09/25 00:06:57;;;;;;;43.10;33.90;;;13.00;99.90;;;;;;6307733;22;20930;-60
2022/09/25 00:09:26;;;;;;;42.00;34.50;;;13.10;99.90;;;;;;6309615;22;20398;-57
2022/09/25 00:11:54;;;;;;;42.00;32.13;;;13.20;99.90;;;;;;6309272;22;20391;-59
2022/09/25 00:14:23;;;;;;;42.17;35.80;;;13.10;27.70;;;;;;6308622;22;20421;-59
2022/09/25 00:16:52;;;;;;;39.03;33.17;;;13.10;99.90;;;;;;6308804;22;20429;-57
2022/09/25 00:22:07;;;;;;;37.40;31.87;;;13.00;99.90;;;;;;6309216;22;20449;-58
2022/09/25 00:24:36;;;;;;;33.27;29.63;;;13.00;1.00;;;;;;6309444;22;20412;-60
2022/09/25 00:27:04;;;;;;;33.17;29.43;;;13.00;99.90;;;;;;6308732;22;20412;-59
2022/09/25 00:29:32;;;;;;;33.23;27.53;;;13.00;77.10;;;;;;6311079;22;20680;-57
2022/09/25 00:32:01;;;;;;;34.50;29.13;;;13.10;1.00;;;;;;6311429;22;20412;-58
2022/09/25 00:34:28;;;;;;;35.23;28.60;;;13.10;1.00;;;;;;6310657;22;20703;-58
2022/09/25 00:36:55;;;;;;;32.03;27.20;;;13.00;99.90;;;;;;6310868;22;20441;-56
2022/09/25 00:39:27;;;;;;;30.30;26.73;;;12.90;1.00;;;;;;6311209;22;20424;-60
2022/09/25 00:41:56;;;;;;;33.40;28.40;;;13.00;99.90;;;;;;6310499;22;20569;-60
2022/09/25 00:44:58;;;;;;;34.20;30.03;;;13.10;99.90;;;;;;6311064;22;20841;-60
2022/09/25 00:47:31;;;;;;;31.17;27.03;;;13.00;1.00;;;;;;6311107;22;20416;-60
2022/09/25 00:50:01;;;;;;;30.40;25.67;;;12.90;1.00;;;;;;6311232;22;20523;-58
2022/09/25 00:52:29;;;;;;;32.07;28.10;;;13.00;71.40;;;;;;6311037;22;20510;-59
2022/09/25 00:55:00;;;;;;;31.10;26.33;;;12.90;99.90;;;;;;6310751;22;20694;-57
2022/09/25 00:57:33;;;;;;;35.80;29.40;;;12.80;99.90;;;;;;6311719;22;20522;-57
2022/09/25 01:00:06;;;;;;;36.80;30.87;;;12.90;64.70;;;;;;6310207;22;20713;-56
2022/09/25 01:02:38;;;;;;;36.40;30.73;;;13.00;1.00;;;;;;6310326;22;20408;-59
2022/09/25 01:05:09;;;;;;;35.17;29.77;;;12.90;1.00;;;;;;6310658;22;20504;-60
2022/09/25 01:07:40;;;;;;;36.50;27.20;;;12.90;27.50;;;;;;6310929;22;20721;-60
2022/09/25 01:10:10;;;;;;;28.97;23.80;;;12.90;32.00;;;;;;6310374;22;20419;-59
2022/09/25 01:12:43;;;;;;;28.10;23.20;;;12.80;33.50;;;;;;6310727;22;20910;-56
2022/09/25 01:15:12;;;;;;;26.53;21.40;;;12.70;99.90;;;;;;6311190;22;20502;-59
2022/09/25 01:17:53;;;;;;;26.70;20.07;;;12.60;1.00;;;;;;6311144;22;20459;-59
2022/09/25 01:20:36;;;;;;;24.10;20.97;;;12.70;1.00;;;;;;6310345;22;20472;-57
2022/09/25 01:23:16;;;;;;;20.30;18.17;;;12.70;28.30;;;;;;6310591;22;20803;-58
2022/09/25 01:26:00;;;;;;;18.70;15.80;;;12.60;99.90;;;;;;6311171;22;20489;-58
2022/09/25 01:28:51;;;;;;;20.03;13.97;;;12.50;99.90;;;;;;6310117;22;20444;-56
2022/09/25 01:31:24;;;;;;;26.97;14.63;;;12.60;99.90;;;;;;6310596;22;20379;-59
2022/09/25 01:34:01;;;;;;;15.50;12.90;;;12.50;1.00;;;;;;6310756;22;20507;-60
2022/09/25 01:36:35;;;;;;;16.30;13.37;;;12.60;99.90;;;;;;6310507;22;20430;-57
2022/09/25 01:39:09;;;;;;;16.03;11.83;;;12.50;99.90;;;;;;6310591;22;20470;-58
2022/09/25 01:41:44;;;;;;;13.83;10.13;;;12.50;99.90;;;;;;6309349;22;20486;-57
2022/09/25 01:44:20;;;;;;;15.27;11.00;;;12.50;99.90;;;;;;6310768;22;20419;-57
2022/09/25 01:46:48;;;;;;;15.27;12.10;;;12.50;99.90;;;;;;6310278;22;20458;-59
2022/09/25 01:49:22;;;;;;;18.23;12.10;;;12.40;99.90;;;;;;6310894;22;20497;-58
2022/09/25 01:51:52;;;;;;;17.33;13.00;;;12.50;99.90;;;;;;6310331;22;20503;-58
2022/09/25 01:54:23;;;;;;;19.43;12.83;;;12.50;99.90;;;;;;6310306;22;20419;-59
2022/09/25 01:56:55;;;;;;;16.57;12.90;;;12.50;99.90;;;;;;6310375;22;20431;-54
2022/09/25 01:59:30;;;;;;;18.90;13.43;;;12.50;1.00;;;;;;6310594;22;20793;-56
2022/09/25 02:02:02;;;;;;;17.13;12.70;;;12.50;1.00;;;;;;6310414;22;20451;-60
2022/09/25 02:04:36;;;;;;;20.93;14.37;;;12.50;1.00;;;;;;6310250;22;20490;-58
2022/09/25 02:07:08;;;;;;;22.43;14.53;;;12.50;1.00;;;;;;6310060;22;20453;-59
2022/09/25 02:09:43;;;;;;;18.33;14.00;;;12.50;1.00;;;;;;6310721;22;20391;-59
2022/09/25 02:12:17;;;;;;;18.20;13.80;;;12.50;1.00;;;;;;6310455;22;20451;-60
2022/09/25 02:14:50;;;;;;;22.30;15.20;;;12.50;46.60;;;;;;6309975;22;20514;-59
2022/09/25 02:22:53;;;;;;;19.03;13.93;;;12.50;99.90;;;;;;6309195;22;20470;-58
2022/09/25 02:25:31;;;;;;;18.37;15.63;;;12.40;1.00;;;;;;6310089;22;20752;-60
2022/09/25 02:27:58;;;;;;;18.40;14.03;;;12.40;1.00;;;;;;6309818;22;20451;-58
2022/09/25 02:30:27;;;;;;;24.47;14.73;;;12.40;81.90;;;;;;6309384;22;20420;-59
2022/09/25 02:32:56;;;;;;;16.10;12.50;;;12.40;99.90;;;;;;6309432;22;20511;-58
2022/09/25 02:35:25;;;;;;;15.20;10.80;;;12.30;99.90;;;;;;6310236;22;20427;-60
2022/09/25 02:37:54;;;;;;;14.40;9.50;;;12.30;99.90;;;;;;6309601;22;20515;-57
2022/09/25 02:40:25;;;;;;;12.73;9.27;;;12.30;99.90;;;;;;6308996;22;20440;-57
2022/09/25 02:43:08;;;;;;;15.13;7.90;;;12.30;44.40;;;;;;6309913;22;20715;-58
2022/09/25 02:45:45;;;;;;;10.70;6.67;;;12.20;99.90;;;;;;6309839;22;20511;-60
2022/09/25 02:48:19;;;;;;;11.80;6.20;;;12.20;99.90;;;;;;6309786;22;20541;-60
2022/09/25 02:50:57;;;;;;;5.90;4.90;;;12.10;99.90;;;;;;6309449;22;20394;-59
2022/09/25 02:53:33;;;;;;;8.30;5.30;;;12.10;99.90;;;;;;6310064;22;20727;-60
2022/09/25 02:56:04;;;;;;;10.93;5.00;;;12.10;1.00;;;;;;6310205;22;20500;-57
2022/09/25 02:58:37;;;;;;;10.10;5.30;;;12.10;99.90;;;;;;6309229;22;20512;-57
2022/09/25 03:01:08;;;;;;;5.73;4.93;;;12.10;1.00;;;;;;6310033;22;20547;-60
2022/09/25 03:03:38;;;;;;;14.73;5.57;;;12.10;1.00;;;;;;6309938;22;20456;-55
2022/09/25 03:06:08;;;;;;;12.47;6.37;;;12.10;99.90;;;;;;6309892;22;20398;-55
2022/09/25 03:08:39;;;;;;;9.90;6.60;;;12.10;1.00;;;;;;6309042;22;20507;-58
2022/09/25 03:11:08;;;;;;;9.67;5.60;;;12.00;1.00;;;;;;6308767;22;20466;-59
2022/09/25 03:13:37;;;;;;;9.90;6.90;;;12.00;1.00;;;;;;6310042;22;20519;-59
2022/09/25 03:16:12;;;;;;;9.40;6.77;;;12.00;1.00;;;;;;6309590;22;20514;-60
2022/09/25 03:18:39;;;;;;;9.60;6.60;;;12.00;1.00;;;;;;6309201;22;20514;-59
2022/09/25 03:21:06;;;;;;;13.40;7.93;;;12.00;1.00;;;;;;6309453;22;20457;-58
2022/09/25 03:23:34;;;;;;;9.33;8.17;;;12.00;12.00;;;;;;6309494;22;20394;-59
2022/09/25 03:26:03;;;;;;;9.87;7.40;;;12.00;1.00;;;;;;6309769;22;20390;-58
2022/09/25 03:28:30;;;;;;;8.60;6.43;;;12.00;1.00;;;;;;6309660;22;20416;-59
2022/09/25 03:31:03;;;;;;;12.80;6.77;;;11.90;1.00;;;;;;6308924;22;20515;-60
2022/09/25 03:33:35;;;;;;;9.10;7.23;;;12.00;1.00;;;;;;6309388;22;20896;-56
2022/09/25 03:36:10;;;;;;;10.50;7.00;;;12.00;99.90;;;;;;6309460;22;20427;-58
2022/09/25 03:38:38;;;;;;;11.63;7.47;;;11.80;1.00;;;;;;6309724;22;20420;-57
2022/09/25 03:41:08;;;;;;;8.30;6.20;;;11.80;1.00;;;;;;6308797;22;20506;-60
2022/09/25 03:43:36;;;;;;;7.13;5.40;;;11.80;99.90;;;;;;6309387;22;20416;-57
2022/09/25 03:46:03;;;;;;;11.33;5.10;;;11.80;99.90;;;;;;6310061;22;20454;-59
2022/09/25 03:48:32;;;;;;;7.30;5.63;;;11.80;99.90;;;;;;6309279;22;20820;-59
2022/09/25 03:51:02;;;;;;;11.87;6.67;;;11.90;99.90;;;;;;6309531;22;20703;-55
2022/09/25 03:53:32;;;;;;;15.93;6.03;;;11.80;99.90;;;;;;6309854;22;20618;-55
2022/09/25 03:56:00;;;;;;;6.90;5.27;;;11.80;99.90;;;;;;6309677;22;20427;-57
2022/09/25 03:58:28;;;;;;;7.67;5.00;;;11.80;1.00;;;;;;6308774;22;20814;-54
2022/09/25 04:00:58;;;;;;;8.03;5.70;;;11.80;1.00;;;;;;6308398;22;20452;-60
2022/09/25 04:03:27;;;;;;;8.20;4.70;;;11.70;1.00;;;;;;6310172;22;20491;-60
2022/09/25 04:05:57;;;;;;;7.50;5.17;;;11.70;99.90;;;;;;6311609;22;20423;-60
2022/09/25 04:08:25;;;;;;;11.40;6.63;;;11.80;29.80;;;;;;6310881;22;20482;-58
2022/09/25 04:10:56;;;;;;;11.90;5.00;;;11.80;1.00;;;;;;6311505;22;20473;-60
2022/09/25 04:13:24;;;;;;;12.70;6.10;;;11.70;1.00;;;;;;6311490;22;20464;-57
2022/09/25 04:15:51;;;;;;;13.67;4.40;;;11.80;54.20;;;;;;6311880;22;20800;-58
2022/09/25 04:18:19;;;;;;;7.87;5.00;;;11.80;99.90;;;;;;6310643;22;20511;-60
2022/09/25 04:20:46;;;;;;;10.00;4.83;;;11.80;1.00;;;;;;6311681;22;20436;-56
2022/09/25 04:23:14;;;;;;;12.33;5.00;;;11.80;99.90;;;;;;6311129;22;20448;-60
2022/09/25 04:25:42;;;;;;;8.67;4.47;;;11.70;99.90;;;;;;6311650;22;20519;-59
2022/09/25 04:28:09;;;;;;;10.63;4.47;;;11.70;99.90;;;;;;6310920;22;20391;-59
2022/09/25 04:30:37;;;;;;;5.80;4.63;;;11.70;1.00;;;;;;6311375;22;20507;-60
2022/09/25 04:35:52;;;;;;;7.33;4.53;;;11.80;1.00;;;;;;6311279;22;20394;-60
2022/09/25 04:38:21;;;;;;;9.43;4.70;;;11.80;99.90;;;;;;6311410;22;20685;-56
2022/09/25 04:40:48;;;;;;;10.20;4.03;;;11.70;99.90;;;;;;6310153;22;20454;-56
2022/09/25 04:43:16;;;;;;;10.63;4.50;;;11.70;66.00;;;;;;6311111;22;20419;-59
2022/09/25 04:45:43;;;;;;;9.43;4.27;;;11.80;99.90;;;;;;6311308;22;20429;-55
2022/09/25 04:48:10;;;;;;;7.63;3.30;;;11.70;1.00;;;;;;6310758;22;20416;-60
2022/09/25 04:50:38;;;;;;;6.83;3.70;;;11.70;1.00;;;;;;6310890;22;20470;-58
2022/09/25 04:53:05;;;;;;;8.70;4.10;;;11.70;1.00;;;;;;6310855;22;20416;-60
2022/09/25 04:55:38;;;;;;;10.30;4.50;;;11.60;1.00;;;;;;6310906;22;20519;-57
2022/09/25 04:58:05;;;;;;;13.67;4.30;;;11.60;1.00;;;;;;6311410;22;20423;-59
2022/09/25 05:00:33;;;;;;;6.97;3.93;;;11.60;1.00;;;;;;6310134;22;20542;-54
2022/09/25 05:03:03;;;;;;;6.07;4.07;;;11.50;28.30;;;;;;6310942;22;20927;-58
2022/09/25 05:05:34;;;;;;;6.60;3.50;;;11.50;1.00;;;;;;6311223;22;20421;-57
2022/09/25 05:08:03;;;;;;;8.80;3.67;;;11.50;99.90;;;;;;6311600;22;20470;-60
2022/09/25 05:10:33;;;;;;;6.63;4.30;;;11.40;73.10;;;;;;6310155;22;20518;-60
2022/09/25 05:13:04;;;;;;;11.40;3.40;;;11.30;99.90;;;;;;6310843;22;20519;-59
2022/09/25 05:15:33;;;;;;;10.00;4.50;;;11.30;99.90;;;;;;6311059;22;20527;-60
2022/09/25 05:18:01;;;;;;;14.27;4.00;;;11.30;99.90;;;;;;6311393;22;20489;-60
2022/09/25 05:20:28;;;;;;;5.37;3.10;;;11.20;99.90;;;;;;6309948;22;20398;-59
2022/09/25 05:22:57;;;;;;;5.37;3.50;;;11.20;1.00;;;;;;6310410;22;20478;-60
2022/09/25 05:25:24;;;;;;;10.83;3.53;;;11.10;99.90;;;;;;6310868;22;20941;-55
2022/09/25 05:27:54;;;;;;;7.87;3.90;;;11.10;99.90;;;;;;6311571;22;20478;-57
2022/09/25 05:30:23;;;;;;;10.57;3.90;;;11.10;1.00;;;;;;6311118;22;20893;-57
2022/09/25 05:32:50;;;;;;;6.83;4.13;;;11.00;99.90;;;;;;6309909;22;20517;-59
2022/09/25 05:35:22;;;;;;;5.47;3.43;;;11.10;1.00;;;;;;6311037;22;20768;-56
2022/09/25 05:37:49;;;;;;;11.07;4.27;;;11.00;99.90;;;;;;6310869;22;20473;-57
2022/09/25 05:40:18;;;;;;;9.30;3.60;;;11.00;1.00;;;;;;6310409;22;20387;-59
2022/09/25 05:42:45;;;;;;;5.30;3.10;;;10.90;1.00;;;;;;6309971;22;20924;-56
2022/09/25 05:45:13;;;;;;;5.53;2.83;;;10.90;1.00;;;;;;6310769;22;20445;-53
2022/09/25 05:47:42;;;;;;;6.70;3.43;;;10.90;99.90;;;;;;6310686;22;20390;-59
2022/09/25 05:50:12;;;;;;;8.53;4.27;;;10.90;1.00;;;;;;6309228;22;20863;-54
2022/09/25 05:52:42;;;;;;;8.70;3.80;;;10.90;1.00;;;;;;6308486;22;20452;-58
2022/09/25 05:55:10;;;;;;;9.80;3.90;;;10.80;53.10;;;;;;6308288;22;20478;-56
2022/09/25 05:57:38;;;;;;;9.70;4.00;;;10.80;1.00;;;;;;6310732;22;20427;-59
2022/09/25 06:00:07;;;;;;;12.13;3.70;;;10.80;1.00;;;;;;6308985;22;20771;-59
2022/09/25 06:02:35;;;;;;;6.87;3.63;;;10.80;1.00;;;;;;6309258;22;20455;-60
2022/09/25 06:05:09;;;;;;;7.70;3.83;;;10.70;99.90;;;;;;6310489;22;20448;-57
2022/09/25 06:07:42;;;;;;;11.87;3.40;;;10.80;99.90;;;;;;6310146;22;20418;-58
2022/09/25 06:10:10;;;;;;;7.93;3.70;;;10.80;99.90;;;;;;6309612;22;20423;-58
2022/09/25 06:12:37;;;;;;;6.37;3.50;;;10.80;1.00;;;;;;6309446;22;20412;-58
2022/09/25 06:15:06;;;;;;;8.73;3.67;;;10.80;1.00;;;;;;6309527;22;20485;-60
2022/09/25 06:17:33;;;;;;;9.43;3.73;;;10.80;1.00;;;;;;6310382;22;20419;-57
2022/09/25 06:20:02;;;;;;;8.27;3.80;;;10.70;99.90;;;;;;6309900;22;20486;-60
2022/09/25 06:22:31;;;;;;;9.17;4.70;;;10.70;67.60;;;;;;6309989;22;20449;-59
2022/09/25 06:24:58;;;;;;;10.33;3.63;;;10.70;99.90;;;;;;6309881;22;20416;-60
2022/09/25 06:27:26;;;;;;;9.13;3.63;;;10.70;1.00;;;;;;6309880;22;20518;-56
2022/09/25 06:29:53;;;;;;;11.23;4.53;;;10.70;99.90;;;;;;6310488;22;20391;-58
2022/09/25 06:32:22;;;;;;;11.90;5.00;;;10.70;99.90;;;;;;6309904;22;20783;-54
2022/09/25 06:34:49;;;;;;;9.70;4.67;;;10.70;1.00;;;;;;6309358;22;20744;-58
2022/09/25 06:37:16;;;;;;;8.03;4.17;;;10.70;90.40;;;;;;6310190;22;20927;-56
2022/09/25 06:39:49;;;;;;;8.60;4.37;;;10.70;99.90;;;;;;6309835;22;20514;-58
2022/09/25 06:42:19;;;;;;;9.97;3.80;;;10.70;99.90;;;;;;6309468;22;20448;-60
2022/09/25 06:44:50;;;;;;;7.13;3.40;;;10.70;23.50;;;;;;6309368;22;20917;-58
2022/09/25 06:47:18;;;;;;;7.43;3.90;;;10.90;99.90;;;;;;6309902;22;20450;-59
2022/09/25 06:49:46;;;;;;;8.67;3.40;;;11.00;1.00;;;;;;6309049;22;20728;-60
2022/09/25 06:52:13;;;;;;;6.20;3.50;;;11.10;29.20;;;;;;6310084;22;20427;-60
2022/09/25 06:54:40;;;;;;;7.53;3.70;;;11.10;99.90;;;;;;6309458;22;20694;-57
2022/09/25 06:57:11;;;;;;;12.10;4.77;;;11.10;99.90;;;;;;6309790;22;20534;-59
2022/09/25 06:59:38;;;;;;;7.90;3.63;;;11.10;80.60;;;;;;6309954;22;20424;-59
2022/09/25 07:04:49;;;;;;;10.50;4.00;;;11.30;1.00;;;;;;6308317;22;20464;-59
2022/09/25 07:07:18;;;;;;;9.07;4.43;;;11.50;99.90;;;;;;6309301;22;20872;-60
2022/09/25 07:09:47;;;;;;;7.67;4.67;;;11.70;99.90;;;;;;6310106;22;20394;-60
2022/09/25 07:12:16;;;;;;;7.10;3.23;;;12.10;1.00;;;;;;6310249;22;20418;-60
2022/09/25 07:14:45;;;;;;;8.17;3.97;;;12.40;1.00;;;;;;6309896;22;20424;-60
2022/09/25 07:17:13;;;;;;;8.40;4.00;;;12.70;1.00;;;;;;6309138;22;20446;-61
2022/09/25 07:19:40;;;;;;;10.73;3.67;;;12.60;64.70;;;;;;6309877;22;20434;-60
2022/09/25 07:22:07;;;;;;;7.57;3.13;;;12.50;1.00;;;;;;6309103;22;20416;-58
2022/09/25 07:24:35;;;;;;;6.80;3.40;;;12.50;1.00;;;;;;6309392;22;20411;-60
2022/09/25 07:27:02;;;;;;;8.73;3.43;;;12.50;1.00;;;;;;6309383;22;20510;-60
2022/09/25 07:29:34;;;;;;;9.70;3.33;;;12.30;1.00;;;;;;6309913;22;20792;-57
2022/09/25 07:32:03;;;;;;;9.87;3.57;;;12.20;1.00;;;;;;6310162;22;20419;-59
2022/09/25 07:34:35;;;;;;;7.33;3.60;;;12.10;1.00;;;;;;6307880;22;20462;-60
2022/09/25 07:37:02;;;;;;;8.00;3.43;;;12.10;1.00;;;;;;6307870;22;20390;-60
2022/09/25 07:39:29;;;;;;;11.03;3.23;;;12.10;1.00;;;;;;6308336;22;20426;-58
2022/09/25 07:41:59;;;;;;;5.73;3.60;;;12.10;1.00;;;;;;6308234;22;20435;-58
2022/09/25 07:44:30;;;;;;;8.87;3.60;;;12.20;1.00;;;;;;6309178;22;20491;-59
2022/09/25 07:47:02;;;;;;;8.37;3.63;;;12.40;1.00;;;;;;6308489;22;20793;-56
2022/09/25 07:49:29;;;;;;;7.33;2.90;;;12.40;1.00;;;;;;6309470;22;20423;-57
2022/09/25 07:51:57;;;;;;;10.40;3.97;;;12.40;1.00;;;;;;6308785;22;20494;-60
2022/09/25 07:54:26;;;;;;;9.00;3.13;;;12.40;1.00;;;;;;6309372;22;20416;-60
2022/09/25 07:56:56;;;;;;;6.00;3.23;;;12.40;1.00;;;;;;6309520;22;20773;-60
2022/09/25 07:59:23;;;;;;;8.37;3.53;;;12.70;1.00;;;;;;6309182;22;20418;-59
2022/09/25 08:01:54;;;;;;;6.13;2.33;;;12.80;1.00;;;;;;6309202;22;20416;-59
2022/09/25 08:04:21;;;;;;;7.43;2.60;;;13.00;1.00;;;;;;6309109;22;20954;-59
2022/09/25 08:06:48;;;;;;;8.93;2.83;;;13.10;1.00;;;;;;6309282;22;20499;-60
2022/09/25 08:09:17;;;;;;;7.60;3.50;;;13.00;1.00;;;;;;6308929;22;20397;-56
2022/09/25 08:11:44;;;;;;;8.37;2.60;;;12.80;1.00;;;;;;6309474;22;20516;-60
2022/09/25 08:14:15;;;;;;;6.70;3.83;;;13.10;1.00;;;;;;6309791;22;20489;-60
2022/09/25 08:16:43;;;;;;;7.60;2.90;;;13.00;1.00;;;;;;6309298;22;20417;-60
2022/09/25 08:19:12;;;;;;;8.23;2.63;;;13.30;1.00;;;;;;6308861;22;20423;-60
2022/09/25 08:21:43;;;;;;;7.70;2.93;;;13.30;99.90;;;;;;6308777;22;20420;-59
2022/09/25 08:24:10;;;;;;;8.37;3.00;;;13.40;1.00;;;;;;6308293;22;20860;-59
2022/09/25 08:26:38;;;;;;;5.90;2.70;;;13.90;1.00;;;;;;6307132;22;20517;-60
2022/09/25 08:29:07;;;;;;;4.50;2.60;;;14.30;99.90;;;;;;6307666;22;20486;-60
2022/09/25 08:31:36;;;;;;;10.50;2.80;;;14.60;99.90;;;;;;6280832;22;20849;-61
2022/09/25 08:34:04;;;;;;;7.93;3.07;;;14.40;99.90;;;;;;6309642;22;20444;-60
2022/09/25 08:36:32;;;;;;;8.27;3.17;;;13.90;99.90;;;;;;6309463;22;20478;-60
2022/09/25 08:38:59;;;;;;;8.33;2.80;;;13.30;99.90;;;;;;6309575;22;20830;-58
2022/09/25 08:41:29;;;;;;;11.03;3.60;;;13.10;99.90;;;;;;6308313;22;20795;-60
2022/09/25 08:44:04;;;;;;;5.87;2.83;;;12.80;1.00;;;;;;6309669;22;20784;-58
2022/09/25 08:49:31;;;;;;;7.27;2.57;;;12.40;1.00;;;;;;6309267;22;20396;-60
2022/09/25 08:52:03;;;;;;;10.43;3.00;;;12.30;1.00;;;;;;6310150;22;20826;-60
2022/09/25 08:54:32;;;;;;;6.53;3.03;;;12.20;1.00;;;;;;6308698;22;20510;-60
2022/09/25 08:57:10;;;;;;;6.63;3.40;;;12.30;1.00;;;;;;6310740;22;20416;-60
2022/09/25 08:59:44;;;;;;;5.53;2.60;;;12.20;1.00;;;;;;6311254;22;20416;-60
2022/09/25 09:02:15;;;;;;;4.53;2.53;;;12.10;1.00;;;;;;6310642;22;20483;-59
2022/09/25 09:04:47;;;;;;;6.50;3.20;;;12.10;1.00;;;;;;6309452;22;20546;-59
2022/09/25 09:07:24;;;;;;;8.03;3.00;;;12.30;1.00;;;;;;6310668;22;20452;-58
2022/09/25 09:09:57;;;;;;;6.27;2.87;;;12.60;1.00;;;;;;6309863;22;20420;-59
2022/09/25 09:12:37;;;;;;;5.63;2.37;;;13.60;99.90;;;;;;6309869;22;20771;-60
2022/09/25 09:15:30;;;;;;;11.73;3.27;;;14.40;99.90;;;;;;6310780;22;20510;-60
2022/09/25 09:17:59;;;;;;;4.57;2.43;;;15.20;99.90;;;;;;6310488;22;20850;-59
2022/09/25 09:20:34;;;;;;;9.20;2.70;;;15.50;99.90;;;;;;6310046;22;20455;-59
2022/09/25 09:23:04;;;;;;;6.27;2.37;;;15.90;99.90;;;;;;6309992;22;20532;-60
2022/09/25 09:25:39;;;;;;;9.70;3.73;;;15.90;99.90;;;;;;6311088;22;20412;-58
2022/09/25 09:28:26;;;;;;;7.27;3.03;;;16.60;99.90;;;;;;6310348;22;20415;-60
2022/09/25 09:31:03;;;;;;;4.13;2.80;;;17.40;99.90;;;;;;6310255;22;20420;-61
2022/09/25 09:33:42;;;;;;;6.23;2.93;;;17.60;99.90;;;;;;6309053;22;20778;-61
2022/09/25 09:36:17;;;;;;;5.33;2.37;;;17.50;99.90;;;;;;6309603;22;20485;-61
2022/09/25 09:38:56;;;;;;;3.67;2.30;;;17.30;99.90;;;;;;6308424;22;20514;-61
2022/09/25 09:41:49;;;;;;;4.50;2.17;;;17.40;99.90;;;;;;6309929;22;20534;-61
2022/09/25 09:44:29;;;;;;;7.63;2.20;;;18.20;99.90;;;;;;6310905;22;20506;-61
2022/09/25 09:47:06;;;;;;;6.57;3.10;;;19.20;99.90;;;;;;6310142;22;20921;-64
2022/09/25 09:49:41;;;;;;;6.10;2.60;;;20.00;99.90;;;;;;6309058;22;20803;-64
2022/09/25 09:52:13;;;;;;;3.10;2.40;;;20.10;99.90;;;;;;6310358;22;20510;-64
2022/09/25 09:54:48;;;;;;;9.90;2.77;;;20.30;99.90;;;;;;6309732;22;20530;-64
2022/09/25 09:57:22;;;;;;;5.17;2.00;;;17.90;99.90;;;;;;6310125;22;20514;-64
2022/09/25 09:59:53;;;;;;;5.40;2.30;;;17.30;99.90;;;;;;6310277;22;20519;-64
2022/09/25 10:02:32;;;;;;;6.43;2.33;;;15.80;99.90;;;;;;6308910;22;20418;-63
2022/09/25 10:05:07;;;;;;;5.30;2.50;;;15.00;99.90;;;;;;6309381;22;20513;-63
2022/09/25 10:07:38;;;;;;;7.03;2.17;;;15.30;99.90;;;;;;6309684;22;20680;-63
2022/09/25 10:10:14;;;;;;;3.63;2.10;;;15.90;99.90;;;;;;6309174;22;20397;-63
2022/09/25 10:12:49;;;;;;;3.70;1.90;;;16.20;99.90;;;;;;6309011;22;20426;-63
2022/09/25 10:15:27;;;;;;;2.90;2.50;;;17.30;99.90;;;;;;6309795;22;20450;-63
2022/09/25 10:17:59;;;;;;;4.60;2.20;;;17.90;99.90;;;;;;6309759;22;20518;-63
2022/09/25 10:20:33;;;;;;;3.30;1.77;;;18.40;99.90;;;;;;6308830;22;20511;-63
2022/09/25 10:23:03;;;;;;;4.53;2.30;;;18.70;99.90;;;;;;6309359;22;20522;-63
2022/09/25 10:25:41;;;;;;;4.87;2.17;;;19.40;99.90;;;;;;6309330;22;20760;-64
2022/09/25 10:28:27;;;;;;;4.57;2.63;;;19.70;99.90;;;;;;6309145;22;20507;-63
2022/09/25 10:31:07;;;;;;;3.93;2.50;;;20.40;99.90;;;;;;6308906;22;20489;-63
2022/09/25 10:33:35;;;;;;;5.77;2.13;;;20.70;99.90;;;;;;6309149;22;20386;-63
2022/09/25 10:36:02;;;;;;;3.33;2.10;;;20.10;99.90;;;;;;6308786;22;20556;-64
2022/09/25 10:38:40;;;;;;;2.17;1.77;;;19.30;99.90;;;;;;6308759;22;20506;-64
2022/09/25 10:41:12;;;;;;;4.17;2.13;;;17.20;99.90;;;;;;6307700;22;20443;-63
2022/09/25 10:43:52;;;;;;;5.47;2.40;;;16.30;99.90;;;;;;6308262;22;20448;-63
2022/09/25 10:52:08;;;;;;;4.27;1.80;;;15.00;99.90;;;;;;6275819;22;20959;-62
2022/09/25 10:54:41;;;;;;;4.70;2.43;;;15.40;99.90;;;;;;6308813;22;20511;-62
2022/09/25 10:57:26;;;;;;;3.77;2.27;;;16.70;99.90;;;;;;6308935;22;20477;-63
2022/09/25 10:59:57;;;;;;;4.80;2.13;;;18.00;99.90;;;;;;6309186;22;20416;-63
2022/09/25 11:02:34;;;;;;;3.67;1.57;;;17.90;99.90;;;;;;6307794;22;20420;-63
2022/09/25 11:05:02;;;;;;;3.70;2.30;;;17.90;99.90;;;;;;6309094;22;20710;-63
2022/09/25 11:07:30;;;;;;;6.73;2.67;;;16.70;99.90;;;;;;6309034;22;20724;-63
2022/09/25 11:09:57;;;;;;;3.80;2.10;;;16.40;99.90;;;;;;6308687;22;20416;-63
2022/09/25 11:12:28;;;;;;;4.57;2.20;;;16.20;99.90;;;;;;6309075;22;20515;-63
2022/09/25 11:15:01;;;;;;;5.10;2.47;;;17.50;99.90;;;;;;6308094;22;20424;-63
2022/09/25 11:17:32;;;;;;;5.57;2.30;;;18.60;99.90;;;;;;6308622;22;20427;-62
2022/09/25 11:20:19;;;;;;;1.97;1.70;;;19.20;99.90;;;;;;6308850;22;20459;-63
2022/09/25 11:22:51;;;;;;;3.27;2.00;;;19.90;99.90;;;;;;6308989;22;20727;-63
2022/09/25 11:25:26;;;;;;;2.87;2.30;;;19.00;99.90;;;;;;6308426;22;20566;-63
2022/09/25 11:28:04;;;;;;;4.70;2.27;;;18.00;99.90;;;;;;6307815;22;20689;-62
2022/09/25 11:30:40;;;;;;;3.23;2.27;;;17.30;99.90;;;;;;6308704;22;20424;-63
2022/09/25 11:33:22;;;;;;;3.33;2.07;;;16.50;99.90;;;;;;6308312;22;20816;-63
2022/09/25 11:35:54;;;;;;;2.60;2.10;;;15.90;99.90;;;;;;6308668;22;20430;-62
2022/09/25 11:41:21;;;;;;;2.70;1.80;;;16.40;99.90;;;;;;6306387;22;20955;-63
2022/09/25 11:44:05;;;;;;;6.60;2.30;;;17.20;99.90;;;;;;6306358;22;20517;-62
2022/09/25 11:46:41;;;;;;;3.47;2.20;;;18.10;99.90;;;;;;6307266;22;20469;-63
2022/09/25 11:49:19;;;;;;;5.20;1.97;;;18.30;99.90;;;;;;6307014;22;20420;-63
2022/09/25 11:52:22;;;;;;;2.97;2.07;;;18.10;99.90;;;;;;6308881;22;20420;-63
2022/09/25 11:55:28;;;;;;;2.40;1.90;;;18.90;99.90;;;;;;6300121;22;20728;-62
2022/09/25 11:58:06;;;;;;;6.67;2.27;;;19.60;99.90;;;;;;6278785;22;20785;-63
2022/09/25 12:00:44;;;;;;;5.00;2.17;;;18.50;99.90;;;;;;6306542;22;20719;-61
2022/09/25 12:03:28;;;;;;;3.50;2.40;;;18.10;99.90;;;;;;6306516;22;20442;-63
2022/09/25 12:06:18;;;;;;;4.53;1.90;;;17.80;99.90;;;;;;6305999;22;20412;-62
2022/09/25 12:09:01;;;;;;;4.40;2.00;;;18.30;99.90;;;;;;6306824;22;20416;-63
2022/09/25 12:11:42;;;;;;;3.43;1.80;;;18.90;99.90;;;;;;6307377;22;20393;-61
2022/09/25 12:14:16;;;;;;;4.00;1.80;;;19.40;99.90;;;;;;6307639;22;20418;-63
2022/09/25 12:16:54;;;;;;;4.20;2.40;;;19.60;99.90;;;;;;6306717;22;20412;-63
2022/09/25 12:19:35;;;;;;;5.50;1.73;;;19.10;99.90;;;;;;6307185;22;20900;-63
2022/09/25 12:22:09;;;;;;;2.90;1.90;;;19.60;99.90;;;;;;6307954;22;20451;-62
2022/09/25 12:24:51;;;;;;;2.63;2.00;;;18.60;99.90;;;;;;6307990;22;20521;-62
2022/09/25 12:27:30;;;;;;;3.13;2.10;;;18.30;99.90;;;;;;6309631;22;20788;-63
2022/09/25 12:30:10;;;;;;;4.80;2.70;;;17.90;99.90;;;;;;6309721;22;20838;-63
2022/09/25 12:32:55;;;;;;;2.60;1.90;;;17.10;99.90;;;;;;6309197;22;20442;-62
2022/09/25 12:35:37;;;;;;;3.00;2.17;;;16.50;99.90;;;;;;6310135;22;20473;-63
2022/09/25 12:38:09;;;;;;;2.63;1.50;;;16.10;99.90;;;;;;6310429;22;20738;-62
2022/09/25 12:40:42;;;;;;;3.40;2.50;;;16.00;99.90;;;;;;6309396;22;20479;-63
2022/09/25 12:43:17;;;;;;;3.63;2.20;;;16.40;99.90;;;;;;6309010;22;20420;-63
2022/09/25 12:45:49;;;;;;;5.37;1.83;;;17.60;99.90;;;;;;6307368;22;20549;-63
2022/09/25 12:48:24;;;;;;;7.27;2.00;;;19.10;99.90;;;;;;6308951;22;20394;-62
2022/09/25 12:50:59;;;;;;;2.30;1.80;;;19.30;99.90;;;;;;6310018;22;20978;-62
2022/09/25 12:53:32;;;;;;;3.97;2.07;;;18.60;99.90;;;;;;6309634;22;20870;-63
2022/09/25 12:56:05;;;;;;;5.20;1.80;;;19.20;99.90;;;;;;6309878;22;20416;-63
2022/09/25 12:58:59;;;;;;;2.77;2.00;;;19.70;99.90;;;;;;6309801;22;20390;-62
2022/09/25 13:01:36;;;;;;;2.80;2.23;;;19.00;99.90;;;;;;6304655;22;20459;-62
2022/09/25 13:04:19;;;;;;;3.30;2.00;;;17.70;99.90;;;;;;6310062;22;20485;-59
2022/09/25 13:06:52;;;;;;;3.43;2.03;;;17.30;99.90;;;;;;6309430;22;20521;-63
2022/09/25 13:09:30;;;;;;;3.47;1.87;;;17.90;99.90;;;;;;6310171;22;20486;-63
2022/09/25 13:12:02;;;;;;;3.70;2.07;;;18.60;99.90;;;;;;6309860;22;20490;-61
2022/09/25 13:14:38;;;;;;;3.97;1.70;;;19.40;99.90;;;;;;6308782;22;20752;-63
2022/09/25 13:17:07;;;;;;;3.33;2.20;;;20.00;99.90;;;;;;6307877;22;20470;-62
2022/09/25 13:19:35;;;;;;;3.80;2.03;;;20.40;99.90;;;;;;6309291;22;20526;-62
2022/09/25 13:22:05;;;;;;;2.30;2.10;;;20.60;99.90;;;;;;6310170;22;20523;-60
2022/09/25 13:24:43;;;;;;;2.03;1.73;;;20.30;99.90;;;;;;6309564;22;20893;-59
2022/09/25 13:27:17;;;;;;;2.43;1.80;;;20.10;99.90;;;;;;6309771;22;20518;-59
2022/09/25 13:29:53;;;;;;;4.10;1.70;;;19.40;99.90;;;;;;6309528;22;20439;-62
2022/09/25 13:32:27;;;;;;;2.77;1.70;;;19.30;99.90;;;;;;6309570;22;20473;-62
2022/09/25 13:35:03;;;;;;;2.93;2.07;;;19.20;99.90;;;;;;6307629;22;20412;-63
2022/09/25 13:37:34;;;;;;;3.30;2.43;;;20.40;99.90;;;;;;6308547;22;20822;-62